Henrys Chapel, Texas
Current Conditions -  °F | °C
As of 4:15 PM on Friday 24 Oct 2014 (Local Time) from KJSO Reporting Station
Clear Clear  
Wind Chill: 78°   Ceiling: Unl
Heat Index: 79°   Visibility: 10mi
Dew Point: 56°   Wind: 3mph
Humidity: 47%   Direction: 60°ENE
Pressure: 30.14"   Gusts: NA
Location:  32.0774°N, 95.1103°W
Report Text: KJSO 242115Z AUTO 06003KT 10SM CLR 25/13 A3014 RMK AO2 T02550134
Loading
Personal Weather Stations






























Interactive Weather Map
Tropical Storm Tracking
New forecast layout! Learn more

10-Day Weather Forecast

Advertisements
Track Severe Weather on mobile